»·PEaware :: N9258 KCMA-KEMT

N9258 :: KCMA-KEMT

FLIGHT INFORMATION

Flight Status: Arrived
Operator: Privately registered:
United States
More flights under this callsign
Pilot: EAA Chapter 723 (6570)
Aircraft: CESSNA 172 SKYHAWK
(C172)
More flights by this aircraft type
Origin: KCMA Camarillo
United States
Destination: KEMT El Monte
United States
More flights between these airports :: More routes between these airports
Route: +VTU044 GINNA V326 VNY V186 PDZ
File this flight plan on PilotEdge
Remarks:
Altitude:
(Current/Filed)
5,000ft
Speed:
(Current/Filed)
100kts
Departed: 26-Oct-19 02:06 PM
Arrived: 26-Oct-19 02:48 PM
Distance/Time
Traveled:
53nm/0:42
Distance/Time
To Go:
Arrived

Flight Plot

Page will automatically refresh every two minutes.


Map Options




Map Legend


Flown Route
Filed Route
Departure Airport
Arrival Airport
Navaid (VOR, NDB)
Fix

Horizontal Profiles

Position Reports

Time Latitude Longitude Heading Altitude Ground
Speed
26-Oct-19 13:32 34.210686 -119.084692 14 78ft 0kts
26-Oct-19 13:33 34.210686 -119.084692 14 78ft 0kts
26-Oct-19 13:34 34.210686 -119.084692 14 78ft 0kts
26-Oct-19 13:35 34.210686 -119.084692 14 78ft 0kts
26-Oct-19 13:36 34.210686 -119.084692 14 78ft 0kts
26-Oct-19 13:37 34.210686 -119.084692 14 78ft 0kts
26-Oct-19 13:38 34.210686 -119.084692 14 78ft 0kts
26-Oct-19 13:39 34.210686 -119.084692 14 78ft 0kts
26-Oct-19 13:40 34.210686 -119.084692 14 78ft 0kts
26-Oct-19 13:41 34.210687 -119.084691 14 78ft 0kts
26-Oct-19 13:42 34.210688 -119.084691 14 78ft 0kts
26-Oct-19 13:43 34.210689 -119.084691 14 78ft 0kts
26-Oct-19 13:44 34.210689 -119.084691 14 78ft 0kts
26-Oct-19 13:45 34.210691 -119.084690 14 78ft 0kts
26-Oct-19 13:46 34.210692 -119.084690 14 78ft 0kts
26-Oct-19 13:47 34.210693 -119.084690 14 78ft 0kts
26-Oct-19 13:48 34.210694 -119.084689 14 78ft 0kts
26-Oct-19 13:49 34.210695 -119.084689 14 78ft 0kts
26-Oct-19 13:50 34.210696 -119.084689 14 78ft 0kts
26-Oct-19 13:51 34.210699 -119.084688 14 78ft 0kts
26-Oct-19 13:52 34.210702 -119.084687 14 78ft 0kts
26-Oct-19 13:53 34.210705 -119.084686 14 78ft 0kts
26-Oct-19 13:54 34.210707 -119.084685 14 78ft 0kts
26-Oct-19 13:55 34.211409 -119.084616 1 78ft 9kts
26-Oct-19 13:56 34.212520 -119.084501 2 78ft 0kts
26-Oct-19 13:57 34.212523 -119.084501 2 78ft 0kts
26-Oct-19 13:58 34.212525 -119.084501 2 78ft 0kts
26-Oct-19 13:59 34.212528 -119.084501 2 78ft 0kts
26-Oct-19 14:00 34.212530 -119.084500 2 78ft 0kts
26-Oct-19 14:01 34.212533 -119.084500 2 78ft 0kts
26-Oct-19 14:02 34.212535 -119.084500 2 78ft 0kts
26-Oct-19 14:03 34.212743 -119.084539 353 78ft 0kts
26-Oct-19 14:04 34.213466 -119.084711 317 78ft 12kts
26-Oct-19 14:05 34.213677 -119.100690 270 457ft 74kts
26-Oct-19 14:06 34.220046 -119.125245 289 1322ft 81kts
26-Oct-19 14:07 34.225294 -119.150090 282 2196ft 75kts
26-Oct-19 14:08 34.231453 -119.173960 283 2956ft 73kts
26-Oct-19 14:09 34.236504 -119.199548 286 3573ft 84kts
26-Oct-19 14:10 34.243155 -119.226355 286 4197ft 85kts
26-Oct-19 14:11 34.257135 -119.241069 45 4727ft 86kts
26-Oct-19 14:12 34.263341 -119.212586 77 5050ft 92kts
26-Oct-19 14:13 34.266046 -119.178042 90 5130ft 107kts
26-Oct-19 14:14 34.262331 -119.140763 97 4922ft 119kts
26-Oct-19 14:15 34.262323 -119.103228 90 4970ft 115kts
26-Oct-19 14:16 34.261268 -119.065055 77 5014ft 114kts
26-Oct-19 14:17 34.258205 -119.027544 101 5058ft 109kts
26-Oct-19 14:18 34.254294 -118.989904 84 5004ft 115kts
26-Oct-19 14:19 34.257201 -118.952356 84 5018ft 111kts
26-Oct-19 14:20 34.256132 -118.915083 94 5021ft 109kts
26-Oct-19 14:21 34.256618 -118.878022 97 4990ft 110kts
26-Oct-19 14:22 34.253381 -118.841266 87 5007ft 108kts
26-Oct-19 14:23 34.246018 -118.805573 109 5065ft 103kts
26-Oct-19 14:24 34.245082 -118.768546 88 5033ft 108kts
26-Oct-19 14:25 34.245775 -118.731584 80 5071ft 107kts
26-Oct-19 14:26 34.245383 -118.694799 97 5103ft 106kts
26-Oct-19 14:27 34.244529 -118.657234 84 5052ft 110kts
26-Oct-19 14:28 34.243391 -118.619527 95 4989ft 115kts
26-Oct-19 14:29 34.240259 -118.581880 103 5019ft 112kts
26-Oct-19 14:30 34.235579 -118.544422 98 5034ft 109kts
26-Oct-19 14:31 34.229407 -118.507774 105 5019ft 111kts
26-Oct-19 14:32 34.219421 -118.472829 114 4997ft 115kts
26-Oct-19 14:33 34.209778 -118.437427 97 5004ft 114kts
26-Oct-19 14:34 34.200576 -118.401400 107 5011ft 112kts
26-Oct-19 14:35 34.191510 -118.365427 119 5007ft 112kts
26-Oct-19 14:36 34.174748 -118.333967 115 4986ft 114kts
26-Oct-19 14:37 34.164309 -118.299604 101 5002ft 107kts
26-Oct-19 14:38 34.156243 -118.264598 109 4834ft 111kts
26-Oct-19 14:39 34.146715 -118.228051 116 4245ft 115kts
26-Oct-19 14:40 34.133701 -118.193277 116 3863ft 110kts
26-Oct-19 14:41 34.121803 -118.159036 111 3279ft 111kts
26-Oct-19 14:42 34.108628 -118.125223 119 2581ft 104kts
26-Oct-19 14:43 34.099642 -118.092260 99 2301ft 106kts
26-Oct-19 14:44 34.094756 -118.060587 102 1556ft 77kts
26-Oct-19 14:45 34.099454 -118.038758 93 1120ft 70kts
26-Oct-19 14:46 34.086352 -118.034673 202 312ft 53kts
26-Oct-19 14:47 34.080983 -118.037116 78 299ft 4kts
26-Oct-19 14:48 34.081005 -118.037013 73 299ft 0kts
26-Oct-19 14:49 34.081434 -118.035839 52 299ft 0kts

Navigation Log

Ident Type
Flight plan parsing failed, navigation log unavailable